KMLF

Milford Municipal / Ben and Judy Briscoe Field Airport

Milford, Utah, USA
METAR KMLF 232052Z AUTO 22008KT 10SM CLR 18/04 A3007 RMK AO2 SLP151 T01780044 58020 $
Observed Flight Rules
Oct-23 @ 20:52 UTC (26 minutes ago) Visual Flight Rules
Wind Visibility Clouds
220° at 8 knots 10 miles
  • Clear skies
Temperatures Readings
Current 18°C / 64°F
Dewpoint 4°C / 39°F
Humidity 40%
Altimeter 30.07" Hg
Pressure 1015.1 hPa
Elevation 1534
METAR KMLF 232052Z AUTO 22008KT 10SM CLR 18/04 A3007 RMK AO2 SLP151 T01780044 58020 $
Observed Flight Rules
Oct-23 @ 20:52 UTC
(26 minutes ago)
VFR
Wind Visibility
220° at 8 knots 10 miles
Clouds
  • Clear skies
Temperature Dewpoint
18°C / 64°F 4°C / 39°F
Humidity Altimeter Pressure
40% 30.07" Hg 1015.1 hPa